Hudson, Florida
Current Conditions -  °F | °C
As of 7:53 PM on Friday 24 Oct 2014 (Local Time) from KBKV Reporting Station
Clear Clear  
Wind Chill: 67°   Ceiling: Unl
Heat Index: 67°   Visibility: 10mi
Dew Point: 58°   Wind: 6mph
Humidity: 73%   Direction: 30°NNE
Pressure: 29.94"   Gusts: NA
Location:  28.36°N, 82.69°W
Report Text: KBKV 242353Z AUTO 03005KT 10SM CLR 19/14 A2994 RMK AO2 SLP137 T01940144 10272 20189 53007
Loading
Personal Weather Stations






























Interactive Weather Map New forecast layout! Learn more

10-Day Weather Forecast

Advertisements
Track Severe Weather on mobile